Time;durP1;ratioP1;P1;durP2;ratioP2;P2;SDS_P1;SDS_P2;PMS_P1;PMS_P2;Temp;Humidity;BMP_temperature;BMP_pressure;BME280_temperature;BME280_humidity;BME280_pressure;Samples;Min_cycle;Max_cycle;Signal;HPM_P1;HPM_P2
2024/03/08 00:00:14;;;;;;;;;;;6.70;99.90;;;;;;5070050;28;20144;-74
2024/03/08 00:02:40;;;;;;;;;;;6.60;99.90;;;;;;5069764;28;19915;-72
2024/03/08 00:05:07;;;;;;;;;;;6.60;99.90;;;;;;5071243;28;19916;-73
2024/03/08 00:07:33;;;;;;;;;;;6.50;99.90;;;;;;5069505;28;19958;-72
2024/03/08 00:09:58;;;;;;;;;;;6.50;99.90;;;;;;5070968;28;19904;-73
2024/03/08 00:12:25;;;;;;;;;;;6.40;99.90;;;;;;5069421;28;19919;-74
2024/03/08 00:14:51;;;;;;;;;;;6.30;99.90;;;;;;5071793;28;20039;-73
2024/03/08 00:17:16;;;;;;;;;;;6.20;99.90;;;;;;5071565;28;20007;-74
2024/03/08 00:19:42;;;;;;;;;;;6.10;99.90;;;;;;5072955;28;19912;-74
2024/03/08 00:22:07;;;;;;;;;;;6.10;99.90;;;;;;5071614;28;19934;-73
2024/03/08 00:24:33;;;;;;;;;;;6.10;99.90;;;;;;5072919;28;19908;-73
2024/03/08 00:26:58;;;;;;;;;;;6.00;99.90;;;;;;5072921;28;19909;-73
2024/03/08 00:29:24;;;;;;;;;;;6.00;99.90;;;;;;5071925;28;19913;-73
2024/03/08 00:31:50;;;;;;;;;;;6.00;99.90;;;;;;5071555;28;19904;-73
2024/03/08 00:34:15;;;;;;;;;;;6.00;99.90;;;;;;5072432;28;20438;-74
2024/03/08 00:36:41;;;;;;;;;;;6.00;99.90;;;;;;5071366;28;20296;-73
2024/03/08 00:39:06;;;;;;;;;;;5.90;99.90;;;;;;5072648;28;19912;-74
2024/03/08 00:41:32;;;;;;;;;;;6.00;99.90;;;;;;5072584;28;19904;-73
2024/03/08 00:43:58;;;;;;;;;;;5.90;99.90;;;;;;5071145;28;19920;-73
2024/03/08 00:46:23;;;;;;;;;;;5.90;99.90;;;;;;5071489;28;19958;-74
2024/03/08 00:48:49;;;;;;;;;;;5.90;99.90;;;;;;5071090;28;19904;-74
2024/03/08 00:51:18;;;;;;;;;;;5.90;99.90;;;;;;5072482;28;20003;-74
2024/03/08 00:53:43;;;;;;;;;;;5.90;99.90;;;;;;5071169;28;19908;-73
2024/03/08 00:56:12;;;;;;;;;;;5.90;99.90;;;;;;5071061;28;20510;-74
2024/03/08 00:58:37;;;;;;;;;;;5.80;99.90;;;;;;5070866;28;19970;-73
2024/03/08 01:01:04;;;;;;;;;;;5.90;99.90;;;;;;5072276;28;19905;-73
2024/03/08 01:03:31;;;;;;;;;;;5.80;99.90;;;;;;5070831;28;19909;-74
2024/03/08 01:05:57;;;;;;;;;;;5.80;99.90;;;;;;5072034;28;19904;-74
2024/03/08 01:08:23;;;;;;;;;;;5.90;99.90;;;;;;5070870;28;19914;-74
2024/03/08 01:10:50;;;;;;;;;;;5.90;99.90;;;;;;5072112;28;19904;-73
2024/03/08 01:13:16;;;;;;;;;;;5.90;99.90;;;;;;5072085;28;19905;-73
2024/03/08 01:15:41;;;;;;;;;;;5.90;99.90;;;;;;5072049;28;19904;-74
2024/03/08 01:18:07;;;;;;;;;;;6.10;99.90;;;;;;5070642;28;19912;-74
2024/03/08 01:20:32;;;;;;;;;;;6.20;99.90;;;;;;5072158;28;19958;-73
2024/03/08 01:22:58;;;;;;;;;;;6.30;99.90;;;;;;5071740;28;20375;-73
2024/03/08 01:25:23;;;;;;;;;;;6.30;99.90;;;;;;5073475;28;19978;-74
2024/03/08 01:27:49;;;;;;;;;;;6.30;99.90;;;;;;5070436;28;19908;-73
2024/03/08 01:30:17;;;;;;;;;;;6.30;99.90;;;;;;5070847;28;19912;-74
2024/03/08 01:32:43;;;;;;;;;;;6.30;99.90;;;;;;5070273;28;20296;-73
2024/03/08 01:35:09;;;;;;;;;;;6.40;99.90;;;;;;5071451;28;20420;-73
2024/03/08 01:37:35;;;;;;;;;;;6.30;99.90;;;;;;5070571;28;20007;-73
2024/03/08 01:40:00;;;;;;;;;;;6.30;99.90;;;;;;5071489;28;19904;-74
2024/03/08 01:42:26;;;;;;;;;;;6.30;99.90;;;;;;5071469;28;19912;-75
2024/03/08 01:44:51;;;;;;;;;;;6.40;99.90;;;;;;5071246;28;19951;-74
2024/03/08 01:47:17;;;;;;;;;;;6.30;99.90;;;;;;5071378;28;19908;-74
2024/03/08 01:49:43;;;;;;;;;;;6.30;99.90;;;;;;5070054;28;19908;-73
2024/03/08 01:52:09;;;;;;;;;;;6.30;99.90;;;;;;5071298;28;19908;-74
2024/03/08 01:54:35;;;;;;;;;;;6.20;99.90;;;;;;5071169;28;19919;-74
2024/03/08 01:57:01;;;;;;;;;;;6.30;99.90;;;;;;5071204;28;19908;-74
2024/03/08 01:59:27;;;;;;;;;;;6.30;99.90;;;;;;5070032;28;19908;-73
2024/03/08 02:01:55;;;;;;;;;;;6.30;99.90;;;;;;5070399;28;19908;-74
2024/03/08 02:04:21;;;;;;;;;;;6.30;99.90;;;;;;5076412;28;19909;-73
2024/03/08 02:06:47;;;;;;;;;;;6.30;99.90;;;;;;5078992;28;19908;-74
2024/03/08 02:09:13;;;;;;;;;;;6.20;99.90;;;;;;5073320;28;19904;-73
2024/03/08 02:11:40;;;;;;;;;;;6.10;99.90;;;;;;5077971;28;19958;-73
2024/03/08 02:14:06;;;;;;;;;;;6.10;99.90;;;;;;5079109;28;19957;-74
2024/03/08 02:16:32;;;;;;;;;;;6.10;99.90;;;;;;5076880;28;19998;-73
2024/03/08 02:18:58;;;;;;;;;;;6.20;99.90;;;;;;5070061;28;19920;-74
2024/03/08 02:21:24;;;;;;;;;;;6.20;99.90;;;;;;5071520;28;19908;-73
2024/03/08 02:23:52;;;;;;;;;;;6.10;99.90;;;;;;5071090;28;19912;-74
2024/03/08 02:26:17;;;;;;;;;;;6.10;99.90;;;;;;5072898;28;19991;-73
2024/03/08 02:28:44;;;;;;;;;;;6.20;99.90;;;;;;5072526;28;20532;-74
2024/03/08 02:31:09;;;;;;;;;;;6.10;99.90;;;;;;5070690;28;19909;-73
2024/03/08 02:33:35;;;;;;;;;;;6.30;99.90;;;;;;5070430;28;19939;-74
2024/03/08 02:36:00;;;;;;;;;;;6.30;99.90;;;;;;5069140;28;19913;-74
2024/03/08 02:38:26;;;;;;;;;;;6.20;99.90;;;;;;5069058;28;19912;-74
2024/03/08 02:40:52;;;;;;;;;;;6.10;99.90;;;;;;5069096;28;19908;-74
2024/03/08 02:43:18;;;;;;;;;;;6.10;99.90;;;;;;5070263;28;20292;-74
2024/03/08 02:45:45;;;;;;;;;;;6.20;99.90;;;;;;5070747;28;19908;-74
2024/03/08 02:48:11;;;;;;;;;;;6.20;99.90;;;;;;5069054;28;20004;-74
2024/03/08 02:50:36;;;;;;;;;;;6.20;99.90;;;;;;5069082;28;20016;-74
2024/03/08 02:53:02;;;;;;;;;;;6.20;99.90;;;;;;5068856;28;19911;-72
2024/03/08 02:55:28;;;;;;;;;;;6.20;99.90;;;;;;5068963;28;19908;-74
2024/03/08 02:57:56;;;;;;;;;;;6.20;99.90;;;;;;5068649;28;19912;-74
2024/03/08 03:00:22;;;;;;;;;;;6.10;99.90;;;;;;5069129;28;19974;-74
2024/03/08 03:02:53;;;;;;;;;;;6.00;99.90;;;;;;5069779;28;19909;-74
2024/03/08 03:05:19;;;;;;;;;;;5.90;99.90;;;;;;5069961;28;20392;-74
2024/03/08 03:07:45;;;;;;;;;;;5.90;99.90;;;;;;5070009;28;19915;-74
2024/03/08 03:10:12;;;;;;;;;;;5.90;99.90;;;;;;5070126;28;19912;-74
2024/03/08 03:12:38;;;;;;;;;;;5.90;99.90;;;;;;5068466;28;19915;-75
2024/03/08 03:15:04;;;;;;;;;;;5.90;99.90;;;;;;5069996;28;19909;-75
2024/03/08 03:17:30;;;;;;;;;;;5.90;99.90;;;;;;5068386;28;19916;-74
2024/03/08 03:19:55;;;;;;;;;;;5.90;99.90;;;;;;5069880;28;19923;-74
2024/03/08 03:22:21;;;;;;;;;;;5.90;99.90;;;;;;5069805;28;19930;-73
2024/03/08 03:24:46;;;;;;;;;;;6.00;99.90;;;;;;5069641;28;19955;-73
2024/03/08 03:27:12;;;;;;;;;;;5.90;99.90;;;;;;5068627;28;19939;-73
2024/03/08 03:29:39;;;;;;;;;;;5.90;99.90;;;;;;5072278;28;19908;-73
2024/03/08 03:32:07;;;;;;;;;;;5.90;99.90;;;;;;5072758;28;19982;-74
2024/03/08 03:34:35;;;;;;;;;;;5.90;99.90;;;;;;5072472;28;20449;-73
2024/03/08 03:37:02;;;;;;;;;;;5.80;99.90;;;;;;5072538;28;19944;-74
2024/03/08 03:39:31;;;;;;;;;;;5.80;99.90;;;;;;5073748;28;19954;-74
2024/03/08 03:41:57;;;;;;;;;;;5.80;99.90;;;;;;5072469;28;20577;-75
2024/03/08 03:44:23;;;;;;;;;;;5.80;99.90;;;;;;5073109;28;19908;-74
2024/03/08 03:46:50;;;;;;;;;;;5.80;99.90;;;;;;5073641;28;19958;-74
2024/03/08 03:49:16;;;;;;;;;;;5.70;99.90;;;;;;5072065;28;20372;-73
2024/03/08 03:51:42;;;;;;;;;;;5.70;99.90;;;;;;5073529;28;19957;-74
2024/03/08 03:54:08;;;;;;;;;;;5.70;99.90;;;;;;5073296;28;19912;-74
2024/03/08 03:56:33;;;;;;;;;;;5.60;99.90;;;;;;5072092;28;19905;-74
2024/03/08 03:58:59;;;;;;;;;;;5.70;99.90;;;;;;5071965;28;19923;-74
2024/03/08 04:01:24;;;;;;;;;;;5.70;99.90;;;;;;5071925;28;19908;-74
2024/03/08 04:03:50;;;;;;;;;;;5.60;99.90;;;;;;5071864;28;19947;-73
2024/03/08 04:06:15;;;;;;;;;;;5.60;99.90;;;;;;5072016;28;19904;-74
2024/03/08 04:08:41;;;;;;;;;;;5.60;99.90;;;;;;5073107;28;19916;-74
2024/03/08 04:11:10;;;;;;;;;;;5.60;99.90;;;;;;5073190;28;19915;-73
2024/03/08 04:13:36;;;;;;;;;;;5.60;99.90;;;;;;5071710;28;19914;-73
2024/03/08 04:16:02;;;;;;;;;;;5.60;99.90;;;;;;5072930;28;19912;-74
2024/03/08 04:18:27;;;;;;;;;;;5.60;99.90;;;;;;5071531;28;19993;-73
2024/03/08 04:20:53;;;;;;;;;;;5.60;99.90;;;;;;5071546;28;20012;-73
2024/03/08 04:23:19;;;;;;;;;;;5.60;99.90;;;;;;5071541;28;19930;-73
2024/03/08 04:25:45;;;;;;;;;;;5.50;99.90;;;;;;5072957;28;19908;-74
2024/03/08 04:28:11;;;;;;;;;;;5.60;99.90;;;;;;5072950;28;19904;-74
2024/03/08 04:30:37;;;;;;;;;;;5.50;99.90;;;;;;5072806;28;20391;-74
2024/03/08 04:33:03;;;;;;;;;;;5.50;99.90;;;;;;5071305;28;20006;-74
2024/03/08 04:35:29;;;;;;;;;;;5.50;99.90;;;;;;5072482;28;20019;-74
2024/03/08 04:37:54;;;;;;;;;;;5.50;99.90;;;;;;5072479;28;19920;-73
2024/03/08 04:40:20;;;;;;;;;;;5.50;99.90;;;;;;5071987;28;19909;-73
2024/03/08 04:42:45;;;;;;;;;;;5.40;99.90;;;;;;5072517;28;19908;-74
2024/03/08 04:45:11;;;;;;;;;;;5.40;99.90;;;;;;5071636;28;19994;-74
2024/03/08 04:47:36;;;;;;;;;;;5.40;99.90;;;;;;5072420;28;19908;-73
2024/03/08 04:50:02;;;;;;;;;;;5.40;99.90;;;;;;5072246;28;20297;-72
2024/03/08 04:52:28;;;;;;;;;;;5.40;99.90;;;;;;5071060;28;19962;-73
2024/03/08 04:54:53;;;;;;;;;;;5.40;99.90;;;;;;5071133;28;20380;-73
2024/03/08 04:57:19;;;;;;;;;;;5.40;99.90;;;;;;5072179;28;19918;-74
2024/03/08 04:59:44;;;;;;;;;;;5.40;99.90;;;;;;5072238;28;19990;-73
2024/03/08 05:02:11;;;;;;;;;;;5.40;99.90;;;;;;5072729;28;19904;-74
2024/03/08 05:04:36;;;;;;;;;;;5.40;99.90;;;;;;5072374;28;19908;-73
2024/03/08 05:07:02;;;;;;;;;;;5.40;99.90;;;;;;5072390;28;19908;-72
2024/03/08 05:09:29;;;;;;;;;;;5.40;99.90;;;;;;5072531;28;19926;-74
2024/03/08 05:11:54;;;;;;;;;;;5.40;99.90;;;;;;5070881;28;20416;-74
2024/03/08 05:14:20;;;;;;;;;;;5.40;99.90;;;;;;5070988;28;19916;-74
2024/03/08 05:16:49;;;;;;;;;;;5.30;99.90;;;;;;5076373;28;19908;-74
2024/03/08 05:19:16;;;;;;;;;;;5.40;99.90;;;;;;5075609;28;19923;-73
2024/03/08 05:21:43;;;;;;;;;;;5.40;99.90;;;;;;5070982;28;19908;-74
2024/03/08 05:24:09;;;;;;;;;;;5.40;99.90;;;;;;5070827;28;19927;-74
2024/03/08 05:26:35;;;;;;;;;;;5.40;99.90;;;;;;5071896;28;19908;-74
2024/03/08 05:29:01;;;;;;;;;;;5.40;99.90;;;;;;5070684;28;20018;-73
2024/03/08 05:31:28;;;;;;;;;;;5.40;99.90;;;;;;5070363;28;20395;-73
2024/03/08 05:33:55;;;;;;;;;;;5.30;99.90;;;;;;5071416;28;19920;-73
2024/03/08 05:36:21;;;;;;;;;;;5.40;99.90;;;;;;5072306;28;20376;-73
2024/03/08 05:38:46;;;;;;;;;;;5.40;99.90;;;;;;5080014;28;19942;-74
2024/03/08 05:41:12;;;;;;;;;;;5.40;99.90;;;;;;5077514;28;19909;-73
2024/03/08 05:43:38;;;;;;;;;;;5.30;99.90;;;;;;5073646;28;20257;-74
2024/03/08 05:46:07;;;;;;;;;;;5.40;99.90;;;;;;5081959;28;19908;-74
2024/03/08 05:48:32;;;;;;;;;;;5.30;99.90;;;;;;5079148;28;19965;-73
2024/03/08 05:50:59;;;;;;;;;;;5.40;99.90;;;;;;5071065;28;20031;-74
2024/03/08 05:53:25;;;;;;;;;;;5.40;99.90;;;;;;5070341;28;19908;-72
2024/03/08 05:55:50;;;;;;;;;;;5.40;99.90;;;;;;5072518;28;19905;-74
2024/03/08 05:58:16;;;;;;;;;;;5.40;99.90;;;;;;5071220;28;19912;-73
2024/03/08 06:00:41;;;;;;;;;;;5.60;99.90;;;;;;5072235;28;19958;-74
2024/03/08 06:03:07;;;;;;;;;;;5.50;99.90;;;;;;5072188;28;19930;-74
2024/03/08 06:05:33;;;;;;;;;;;5.50;99.90;;;;;;5069547;28;20296;-74
2024/03/08 06:07:59;;;;;;;;;;;5.40;99.90;;;;;;5071108;28;19912;-74
2024/03/08 06:10:24;;;;;;;;;;;5.50;99.90;;;;;;5069735;28;19911;-72
2024/03/08 06:12:51;;;;;;;;;;;5.50;99.90;;;;;;5069703;28;19908;-74
2024/03/08 06:15:17;;;;;;;;;;;5.50;99.90;;;;;;5070792;28;19950;-74
2024/03/08 06:17:42;;;;;;;;;;;5.50;99.90;;;;;;5071111;28;19916;-74
2024/03/08 06:20:12;;;;;;;;;;;5.50;99.90;;;;;;5069527;28;19912;-74
2024/03/08 06:22:41;;;;;;;;;;;5.60;99.90;;;;;;5070608;28;19908;-72
2024/03/08 06:25:07;;;;;;;;;;;5.60;99.90;;;;;;5069667;28;19904;-73
2024/03/08 06:27:33;;;;;;;;;;;5.60;99.90;;;;;;5070817;28;19947;-74
2024/03/08 06:29:59;;;;;;;;;;;5.60;99.90;;;;;;5069530;28;19915;-73
2024/03/08 06:32:25;;;;;;;;;;;5.70;99.90;;;;;;5069369;28;19912;-73
2024/03/08 06:34:51;;;;;;;;;;;5.70;99.90;;;;;;5069735;28;19932;-73
2024/03/08 06:37:21;;;;;;;;;;;5.70;99.90;;;;;;5069172;28;20002;-74
2024/03/08 06:39:47;;;;;;;;;;;5.80;99.90;;;;;;5071038;28;20003;-73
2024/03/08 06:42:14;;;;;;;;;;;5.80;99.90;;;;;;5069248;28;19921;-73
2024/03/08 06:44:48;;;;;;;;;;;5.80;99.90;;;;;;5069244;28;19904;-73
2024/03/08 06:47:15;;;;;;;;;;;5.80;99.90;;;;;;5069116;28;19912;-73
2024/03/08 06:49:41;;;;;;;;;;;5.80;99.90;;;;;;5069223;28;20266;-74
2024/03/08 06:52:08;;;;;;;;;;;5.90;99.90;;;;;;5070276;28;19914;-74
2024/03/08 06:54:36;;;;;;;;;;;5.80;99.90;;;;;;5070245;28;19931;-73
2024/03/08 06:57:03;;;;;;;;;;;5.90;99.90;;;;;;5070090;28;20430;-74
2024/03/08 06:59:28;;;;;;;;;;;5.90;99.90;;;;;;5070145;28;19904;-73
2024/03/08 07:01:54;;;;;;;;;;;5.90;99.90;;;;;;5070228;28;20456;-73
2024/03/08 07:04:21;;;;;;;;;;;5.90;99.90;;;;;;5068574;28;19908;-72
2024/03/08 07:06:49;;;;;;;;;;;5.80;99.90;;;;;;5070132;28;19919;-74
2024/03/08 07:09:16;;;;;;;;;;;5.90;99.90;;;;;;5068587;28;20031;-74
2024/03/08 07:11:42;;;;;;;;;;;5.90;99.90;;;;;;5070120;28;20446;-72
2024/03/08 07:14:08;;;;;;;;;;;5.90;99.90;;;;;;5070217;28;19904;-74
2024/03/08 07:16:35;;;;;;;;;;;6.00;99.90;;;;;;5068396;28;19912;-73
2024/03/08 07:19:01;;;;;;;;;;;6.00;99.90;;;;;;5069860;28;20387;-73
2024/03/08 07:21:26;;;;;;;;;;;6.00;99.90;;;;;;5068557;28;19909;-74
2024/03/08 07:26:27;;;;;;;;;;;6.20;99.90;;;;;;5070002;28;20416;-73
2024/03/08 07:28:54;;;;;;;;;;;6.30;99.90;;;;;;5067781;28;20008;-73
2024/03/08 07:33:53;;;;;;;;;;;6.40;99.90;;;;;;5069684;28;19912;-74
2024/03/08 07:36:19;;;;;;;;;;;6.50;99.90;;;;;;5068565;28;20331;-74
2024/03/08 07:38:46;;;;;;;;;;;6.50;99.90;;;;;;5068062;28;20365;-72
2024/03/08 07:41:12;;;;;;;;;;;6.60;99.90;;;;;;5069556;28;20574;-74
2024/03/08 07:43:38;;;;;;;;;;;6.70;99.90;;;;;;5068197;28;19915;-72
2024/03/08 07:46:04;;;;;;;;;;;6.70;99.90;;;;;;5069222;28;19924;-73
2024/03/08 07:48:30;;;;;;;;;;;6.80;99.90;;;;;;5069918;28;19908;-75
2024/03/08 07:50:56;;;;;;;;;;;6.80;99.90;;;;;;5068294;28;19913;-73
2024/03/08 07:53:21;;;;;;;;;;;6.80;99.90;;;;;;5069690;28;20037;-72
2024/03/08 07:55:47;;;;;;;;;;;6.90;99.90;;;;;;5069593;28;19955;-73
2024/03/08 07:58:13;;;;;;;;;;;6.90;99.90;;;;;;5068220;28;19913;-73
2024/03/08 08:00:38;;;;;;;;;;;7.10;99.90;;;;;;5069547;28;20258;-72
2024/03/08 08:03:05;;;;;;;;;;;7.20;99.90;;;;;;5068194;28;19953;-74
2024/03/08 08:05:35;;;;;;;;;;;7.30;99.90;;;;;;5068304;28;19908;-73
2024/03/08 08:08:06;;;;;;;;;;;7.40;99.90;;;;;;5070915;28;20022;-76
2024/03/08 08:10:34;;;;;;;;;;;7.50;99.90;;;;;;5071784;28;19916;-74
2024/03/08 08:13:00;;;;;;;;;;;7.60;99.90;;;;;;5068476;28;19904;-74
2024/03/08 08:15:26;;;;;;;;;;;7.50;99.90;;;;;;5071150;28;19908;-73
2024/03/08 08:17:51;;;;;;;;;;;7.60;99.90;;;;;;5071796;28;19908;-73
2024/03/08 08:20:18;;;;;;;;;;;7.50;99.90;;;;;;5074656;28;19924;-72
2024/03/08 08:22:44;;;;;;;;;;;7.50;99.90;;;;;;5073585;28;20304;-73
2024/03/08 08:25:12;;;;;;;;;;;7.50;99.90;;;;;;5071414;28;19911;-73
2024/03/08 08:27:39;;;;;;;;;;;7.60;99.90;;;;;;5073050;28;19943;-74
2024/03/08 08:30:07;;;;;;;;;;;7.50;99.90;;;;;;5072799;28;19912;-72
2024/03/08 08:32:36;;;;;;;;;;;7.60;99.90;;;;;;5071775;28;19912;-74
2024/03/08 08:35:02;;;;;;;;;;;7.50;99.90;;;;;;5071243;28;19916;-74
2024/03/08 08:37:28;;;;;;;;;;;7.50;99.90;;;;;;5072605;28;19916;-74
2024/03/08 08:39:54;;;;;;;;;;;7.60;99.90;;;;;;5071450;28;20241;-73
2024/03/08 08:42:19;;;;;;;;;;;7.60;99.90;;;;;;5072976;28;19909;-73
2024/03/08 08:44:46;;;;;;;;;;;7.70;99.90;;;;;;5072598;28;20720;-72
2024/03/08 08:47:12;;;;;;;;;;;7.60;99.90;;;;;;5072673;28;19994;-73
2024/03/08 08:49:38;;;;;;;;;;;7.60;99.90;;;;;;5072769;28;20701;-72
2024/03/08 08:52:04;;;;;;;;;;;7.60;99.90;;;;;;5071487;28;19914;-73
2024/03/08 08:54:29;;;;;;;;;;;7.50;99.90;;;;;;5072710;28;19916;-73
2024/03/08 08:56:55;;;;;;;;;;;7.50;99.90;;;;;;5072630;28;19916;-70
2024/03/08 08:59:22;;;;;;;;;;;7.50;99.90;;;;;;5072583;28;20446;-74
2024/03/08 09:01:48;;;;;;;;;;;7.60;99.90;;;;;;5070937;28;19908;-74
2024/03/08 09:04:13;;;;;;;;;;;7.60;99.90;;;;;;5070964;28;19962;-74
2024/03/08 09:06:41;;;;;;;;;;;7.50;99.90;;;;;;5071260;28;20289;-73
2024/03/08 09:09:09;;;;;;;;;;;7.50;99.90;;;;;;5074656;28;20391;-73
2024/03/08 09:11:34;;;;;;;;;;;7.40;99.90;;;;;;5078351;28;20277;-73
2024/03/08 09:14:01;;;;;;;;;;;7.40;99.90;;;;;;5074506;28;19908;-73
2024/03/08 09:16:27;;;;;;;;;;;7.30;99.90;;;;;;5077953;28;19908;-73
2024/03/08 09:18:53;;;;;;;;;;;7.10;99.90;;;;;;5080703;28;19938;-73
2024/03/08 09:21:18;;;;;;;;;;;7.00;99.90;;;;;;5078751;28;20058;-73
2024/03/08 09:23:44;;;;;;;;;;;6.90;99.90;;;;;;5072767;28;19915;-74
2024/03/08 09:26:12;;;;;;;;;;;6.90;99.90;;;;;;5070417;28;19915;-73
2024/03/08 09:28:38;;;;;;;;;;;6.80;99.90;;;;;;5072248;28;19908;-74
2024/03/08 09:31:05;;;;;;;;;;;6.90;99.90;;;;;;5071883;28;19908;-74
2024/03/08 09:33:31;;;;;;;;;;;6.90;99.90;;;;;;5070201;28;19956;-74
2024/03/08 09:35:57;;;;;;;;;;;6.80;99.90;;;;;;5071512;28;19928;-74
2024/03/08 09:38:24;;;;;;;;;;;6.80;99.90;;;;;;5070401;28;19960;-73
2024/03/08 09:40:50;;;;;;;;;;;6.70;99.90;;;;;;5070278;28;19904;-73
2024/03/08 09:43:16;;;;;;;;;;;6.80;99.90;;;;;;5070235;28;19916;-74
2024/03/08 09:45:42;;;;;;;;;;;6.90;99.90;;;;;;5071473;28;19912;-73
2024/03/08 09:48:13;;;;;;;;;;;6.90;99.90;;;;;;5070165;28;19911;-73
2024/03/08 09:50:42;;;;;;;;;;;6.80;99.90;;;;;;5070071;28;19908;-71
2024/03/08 09:53:08;;;;;;;;;;;6.80;99.90;;;;;;5071341;28;19908;-74
2024/03/08 09:55:37;;;;;;;;;;;6.80;99.90;;;;;;5071513;28;20404;-73
2024/03/08 10:00:49;;;;;;;;;;;7.00;99.90;;;;;;5071461;28;20300;-74
2024/03/08 10:03:15;;;;;;;;;;;7.00;99.90;;;;;;5071381;28;19908;-74
2024/03/08 10:05:41;;;;;;;;;;;7.10;99.90;;;;;;5071105;28;20376;-73
2024/03/08 10:08:07;;;;;;;;;;;7.10;99.90;;;;;;5071024;28;19915;-73
2024/03/08 10:10:37;;;;;;;;;;;7.20;99.90;;;;;;5069670;28;19947;-73
2024/03/08 10:13:13;;;;;;;;;;;7.20;99.90;;;;;;5071003;28;19905;-73
2024/03/08 10:15:39;;;;;;;;;;;7.30;99.90;;;;;;5069440;28;19982;-74
2024/03/08 10:18:05;;;;;;;;;;;7.30;99.90;;;;;;5069374;28;19920;-73
2024/03/08 10:20:34;;;;;;;;;;;7.30;99.90;;;;;;5071035;28;19918;-74
2024/03/08 10:23:00;;;;;;;;;;;7.10;99.90;;;;;;5070771;28;19904;-73
2024/03/08 10:25:26;;;;;;;;;;;7.10;99.90;;;;;;5069232;28;20335;-73
2024/03/08 10:27:51;;;;;;;;;;;7.00;99.90;;;;;;5070837;28;19908;-73
2024/03/08 10:30:21;;;;;;;;;;;6.90;99.90;;;;;;5069794;28;19931;-73
2024/03/08 10:32:47;;;;;;;;;;;6.90;99.90;;;;;;5069289;28;19930;-73
2024/03/08 10:35:13;;;;;;;;;;;6.70;99.90;;;;;;5071046;28;20396;-73
2024/03/08 10:37:45;;;;;;;;;;;6.80;99.90;;;;;;5070730;28;19965;-73
2024/03/08 10:40:16;;;;;;;;;;;6.90;99.90;;;;;;5070628;28;19915;-74
2024/03/08 10:42:59;;;;;;;;;;;6.80;99.90;;;;;;5070407;28;19923;-72
2024/03/08 10:45:25;;;;;;;;;;;6.80;99.90;;;;;;5069367;28;19904;-73
2024/03/08 10:47:59;;;;;;;;;;;6.70;99.90;;;;;;5069180;28;20381;-72
2024/03/08 10:50:26;;;;;;;;;;;6.80;99.90;;;;;;5069202;28;20006;-74
2024/03/08 10:52:52;;;;;;;;;;;6.70;99.90;;;;;;5069019;28;20353;-73
2024/03/08 10:55:19;;;;;;;;;;;6.70;99.90;;;;;;5071235;28;20273;-72
2024/03/08 10:57:44;;;;;;;;;;;6.60;99.90;;;;;;5070986;28;19913;-73
2024/03/08 11:00:11;;;;;;;;;;;6.60;99.90;;;;;;5071058;28;19935;-74
2024/03/08 11:02:39;;;;;;;;;;;6.60;99.90;;;;;;5070025;28;20297;-72
2024/03/08 11:05:09;;;;;;;;;;;6.60;99.90;;;;;;5070228;28;20432;-72
2024/03/08 11:07:35;;;;;;;;;;;6.60;99.90;;;;;;5068436;28;19908;-74
2024/03/08 11:10:10;;;;;;;;;;;6.70;99.90;;;;;;5068781;28;19954;-72
2024/03/08 11:12:36;;;;;;;;;;;6.70;99.90;;;;;;5070068;28;19912;-74
2024/03/08 11:15:10;;;;;;;;;;;6.60;99.90;;;;;;5068881;28;19904;-74
2024/03/08 11:17:39;;;;;;;;;;;6.60;99.90;;;;;;5070045;28;19917;-71
2024/03/08 11:20:23;;;;;;;;;;;6.70;99.90;;;;;;5068927;28;20312;-73
2024/03/08 11:22:48;;;;;;;;;;;6.60;99.90;;;;;;5069889;28;19955;-72
2024/03/08 11:25:33;;;;;;;;;;;6.70;99.90;;;;;;5070079;28;19932;-74
2024/03/08 11:28:10;;;;;;;;;;;6.80;99.90;;;;;;5069792;28;20368;-72
2024/03/08 11:30:38;;;;;;;;;;;6.80;99.90;;;;;;5069769;28;19932;-73
2024/03/08 11:33:03;;;;;;;;;;;6.80;99.90;;;;;;5069906;28;19908;-74
2024/03/08 11:35:29;;;;;;;;;;;6.90;99.90;;;;;;5069610;28;19928;-73
2024/03/08 11:37:58;;;;;;;;;;;6.90;99.90;;;;;;5069724;28;19922;-71
2024/03/08 11:40:24;;;;;;;;;;;6.90;99.90;;;;;;5068540;28;20296;-74
2024/03/08 11:42:51;;;;;;;;;;;6.90;99.90;;;;;;5068364;28;20003;-73
2024/03/08 11:45:17;;;;;;;;;;;6.90;99.90;;;;;;5069839;28;19912;-74
2024/03/08 11:47:46;;;;;;;;;;;7.00;99.90;;;;;;5069751;28;19912;-73
2024/03/08 11:50:12;;;;;;;;;;;7.10;99.90;;;;;;5069854;28;19908;-73
2024/03/08 11:52:37;;;;;;;;;;;7.10;99.90;;;;;;5072551;28;20002;-73
2024/03/08 11:55:04;;;;;;;;;;;7.10;99.90;;;;;;5072307;28;20578;-73
2024/03/08 11:57:30;;;;;;;;;;;7.10;99.90;;;;;;5073368;28;20377;-73
2024/03/08 11:59:56;;;;;;;;;;;7.20;99.90;;;;;;5072370;28;19962;-73
2024/03/08 12:02:22;;;;;;;;;;;7.30;99.90;;;;;;5072172;28;19908;-73
2024/03/08 12:04:55;;;;;;;;;;;7.20;99.90;;;;;;5072127;28;19985;-74
2024/03/08 12:07:21;;;;;;;;;;;7.20;99.90;;;;;;5073370;28;19908;-73
2024/03/08 12:10:16;;;;;;;;;;;7.20;99.90;;;;;;5073444;28;19931;-74
2024/03/08 12:12:41;;;;;;;;;;;7.30;99.90;;;;;;5067028;28;19953;-74
2024/03/08 12:15:07;;;;;;;;;;;7.30;99.90;;;;;;5073300;28;19909;-74
2024/03/08 12:17:33;;;;;;;;;;;7.40;99.90;;;;;;5073051;28;19915;-74
2024/03/08 12:20:11;;;;;;;;;;;7.50;99.90;;;;;;5073180;28;19908;-72
2024/03/08 12:22:40;;;;;;;;;;;7.60;99.90;;;;;;5071592;28;20322;-73
2024/03/08 12:25:10;;;;;;;;;;;7.60;99.90;;;;;;5073323;28;19931;-73
2024/03/08 12:27:37;;;;;;;;;;;7.70;99.90;;;;;;5071600;28;19913;-73
2024/03/08 12:30:19;;;;;;;;;;;7.70;99.90;;;;;;5071862;28;19904;-72
2024/03/08 12:32:58;;;;;;;;;;;7.80;99.90;;;;;;5075603;28;20372;-75
2024/03/08 12:35:24;;;;;;;;;;;7.80;99.90;;;;;;5076602;28;19969;-75
2024/03/08 12:37:51;;;;;;;;;;;7.90;99.90;;;;;;5073529;28;19920;-74
2024/03/08 12:40:17;;;;;;;;;;;8.00;99.90;;;;;;5077960;28;19912;-72
2024/03/08 12:42:43;;;;;;;;;;;8.00;99.90;;;;;;5078911;28;19904;-75
2024/03/08 12:45:10;;;;;;;;;;;8.10;99.90;;;;;;5077261;28;19908;-72
2024/03/08 12:47:35;;;;;;;;;;;8.20;99.90;;;;;;5071834;28;19908;-73
2024/03/08 12:50:01;;;;;;;;;;;8.20;99.90;;;;;;5071978;28;20027;-73
2024/03/08 12:52:30;;;;;;;;;;;8.10;99.90;;;;;;5072500;28;20288;-73
2024/03/08 12:54:55;;;;;;;;;;;8.10;99.90;;;;;;5071926;28;19959;-74
2024/03/08 12:57:21;;;;;;;;;;;8.30;99.90;;;;;;5072466;28;19936;-74
2024/03/08 12:59:46;;;;;;;;;;;8.20;99.90;;;;;;5072558;28;19952;-74
2024/03/08 13:02:12;;;;;;;;;;;8.30;99.90;;;;;;5070942;28;19915;-74
2024/03/08 13:04:37;;;;;;;;;;;8.30;99.90;;;;;;5072297;28;19915;-75
2024/03/08 13:07:03;;;;;;;;;;;8.30;99.90;;;;;;5070630;28;19908;-74
2024/03/08 13:09:29;;;;;;;;;;;8.30;99.90;;;;;;5071001;28;19909;-72
2024/03/08 13:11:55;;;;;;;;;;;8.40;99.90;;;;;;5072066;28;19904;-75
2024/03/08 13:14:21;;;;;;;;;;;8.40;99.90;;;;;;5070862;28;20403;-74
2024/03/08 13:16:47;;;;;;;;;;;8.50;99.90;;;;;;5071989;28;19909;-73
2024/03/08 13:19:13;;;;;;;;;;;8.50;99.90;;;;;;5070796;28;19912;-73
2024/03/08 13:21:39;;;;;;;;;;;8.50;99.90;;;;;;5072040;28;19911;-74
2024/03/08 13:24:04;;;;;;;;;;;8.40;99.90;;;;;;5071806;28;19904;-74
2024/03/08 13:26:33;;;;;;;;;;;8.40;99.90;;;;;;5071865;28;20339;-73
2024/03/08 13:28:59;;;;;;;;;;;8.40;99.90;;;;;;5071939;28;19911;-74
2024/03/08 13:31:24;;;;;;;;;;;8.50;99.90;;;;;;5071754;28;20319;-74
2024/03/08 13:33:51;;;;;;;;;;;8.60;99.90;;;;;;5071681;28;20423;-75
2024/03/08 13:36:20;;;;;;;;;;;8.60;99.90;;;;;;5071889;28;20369;-73
2024/03/08 13:38:47;;;;;;;;;;;8.60;99.90;;;;;;5070262;28;19928;-74
2024/03/08 13:41:14;;;;;;;;;;;8.60;99.90;;;;;;5071455;28;19947;-73
2024/03/08 13:43:46;;;;;;;;;;;8.50;99.90;;;;;;5070514;28;19912;-73
2024/03/08 13:46:12;;;;;;;;;;;8.60;99.90;;;;;;5071724;28;19908;-73
2024/03/08 13:48:37;;;;;;;;;;;8.70;99.90;;;;;;5069941;28;19915;-73
2024/03/08 13:51:06;;;;;;;;;;;8.70;99.90;;;;;;5069793;28;19935;-73
2024/03/08 13:53:34;;;;;;;;;;;8.80;99.90;;;;;;5071101;28;19944;-73
2024/03/08 13:56:01;;;;;;;;;;;8.90;99.90;;;;;;5070048;28;19908;-74
2024/03/08 13:58:27;;;;;;;;;;;9.00;99.90;;;;;;5071257;28;20446;-73
2024/03/08 14:00:52;;;;;;;;;;;9.00;99.90;;;;;;5071096;28;19909;-74
2024/03/08 14:03:17;;;;;;;;;;;9.00;99.90;;;;;;5070987;28;19912;-73
2024/03/08 14:05:44;;;;;;;;;;;9.00;99.90;;;;;;5071095;28;19908;-75
2024/03/08 14:08:11;;;;;;;;;;;9.00;99.90;;;;;;5070926;28;19908;-74
2024/03/08 14:10:37;;;;;;;;;;;8.90;99.90;;;;;;5069458;28;20437;-73
2024/03/08 14:13:04;;;;;;;;;;;8.80;99.90;;;;;;5068757;28;19909;-74
2024/03/08 14:15:34;;;;;;;;;;;8.70;99.90;;;;;;5070759;28;19904;-75
2024/03/08 14:18:01;;;;;;;;;;;8.60;99.90;;;;;;5069617;28;20399;-75
2024/03/08 14:20:26;;;;;;;;;;;8.40;99.90;;;;;;5069277;28;19958;-74
2024/03/08 14:22:53;;;;;;;;;;;8.40;99.90;;;;;;5070042;28;19912;-74
2024/03/08 14:25:18;;;;;;;;;;;8.30;99.90;;;;;;5069417;28;19950;-74
2024/03/08 14:27:44;;;;;;;;;;;8.30;99.90;;;;;;5070712;28;20355;-74
2024/03/08 14:30:10;;;;;;;;;;;8.20;99.90;;;;;;5070611;28;19915;-72
2024/03/08 14:32:38;;;;;;;;;;;8.20;99.90;;;;;;5070503;28;19958;-74
2024/03/08 14:35:04;;;;;;;;;;;8.10;99.90;;;;;;5070531;28;19916;-72